sensor_id;sensor_type;location;lat;lon;timestamp;P1;durP1;ratioP1;P2;durP2;ratioP2
20695;SDS011;10507;52.754;13.040;2024-01-30T00:01:52;17.13;;;10.03;;
20695;SDS011;10507;52.754;13.040;2024-01-30T00:04:20;17.10;;;10.47;;
20695;SDS011;10507;52.754;13.040;2024-01-30T00:06:46;19.97;;;10.60;;
20695;SDS011;10507;52.754;13.040;2024-01-30T00:09:13;18.73;;;10.63;;
20695;SDS011;10507;52.754;13.040;2024-01-30T00:11:40;16.47;;;9.97;;
20695;SDS011;10507;52.754;13.040;2024-01-30T00:14:07;17.73;;;10.07;;
20695;SDS011;10507;52.754;13.040;2024-01-30T00:16:33;14.67;;;9.03;;
20695;SDS011;10507;52.754;13.040;2024-01-30T00:19:00;17.67;;;10.03;;
20695;SDS011;10507;52.754;13.040;2024-01-30T00:21:29;14.97;;;9.40;;
20695;SDS011;10507;52.754;13.040;2024-01-30T00:23:55;13.73;;;8.53;;
20695;SDS011;10507;52.754;13.040;2024-01-30T00:26:22;13.23;;;7.70;;
20695;SDS011;10507;52.754;13.040;2024-01-30T00:28:48;13.00;;;8.27;;
20695;SDS011;10507;52.754;13.040;2024-01-30T00:31:15;21.63;;;9.80;;
20695;SDS011;10507;52.754;13.040;2024-01-30T00:33:42;14.60;;;9.53;;
20695;SDS011;10507;52.754;13.040;2024-01-30T00:36:09;13.30;;;7.30;;
20695;SDS011;10507;52.754;13.040;2024-01-30T00:38:37;16.27;;;8.13;;
20695;SDS011;10507;52.754;13.040;2024-01-30T00:41:03;15.20;;;8.77;;
20695;SDS011;10507;52.754;13.040;2024-01-30T00:43:30;15.43;;;8.70;;
20695;SDS011;10507;52.754;13.040;2024-01-30T00:45:57;12.30;;;7.80;;
20695;SDS011;10507;52.754;13.040;2024-01-30T00:48:24;12.67;;;7.97;;
20695;SDS011;10507;52.754;13.040;2024-01-30T00:50:50;13.50;;;8.17;;
20695;SDS011;10507;52.754;13.040;2024-01-30T00:53:17;12.57;;;7.37;;
20695;SDS011;10507;52.754;13.040;2024-01-30T00:55:45;11.77;;;7.80;;
20695;SDS011;10507;52.754;13.040;2024-01-30T00:58:12;14.10;;;7.80;;
20695;SDS011;10507;52.754;13.040;2024-01-30T01:00:38;12.37;;;7.37;;
20695;SDS011;10507;52.754;13.040;2024-01-30T01:03:05;11.13;;;7.57;;
20695;SDS011;10507;52.754;13.040;2024-01-30T01:05:32;11.00;;;7.13;;
20695;SDS011;10507;52.754;13.040;2024-01-30T01:07:58;12.87;;;7.03;;
20695;SDS011;10507;52.754;13.040;2024-01-30T01:10:25;15.40;;;7.43;;
20695;SDS011;10507;52.754;13.040;2024-01-30T01:12:53;12.97;;;7.63;;
20695;SDS011;10507;52.754;13.040;2024-01-30T01:15:20;12.17;;;7.50;;
20695;SDS011;10507;52.754;13.040;2024-01-30T01:17:47;11.13;;;7.90;;
20695;SDS011;10507;52.754;13.040;2024-01-30T01:20:14;10.23;;;6.77;;
20695;SDS011;10507;52.754;13.040;2024-01-30T01:22:40;11.80;;;7.50;;
20695;SDS011;10507;52.754;13.040;2024-01-30T01:25:08;11.83;;;6.90;;
20695;SDS011;10507;52.754;13.040;2024-01-30T01:27:35;10.00;;;6.97;;
20695;SDS011;10507;52.754;13.040;2024-01-30T01:30:08;10.40;;;7.10;;
20695;SDS011;10507;52.754;13.040;2024-01-30T01:32:36;15.27;;;7.37;;
20695;SDS011;10507;52.754;13.040;2024-01-30T01:35:03;11.27;;;7.23;;
20695;SDS011;10507;52.754;13.040;2024-01-30T01:37:30;13.70;;;8.07;;
20695;SDS011;10507;52.754;13.040;2024-01-30T01:39:57;15.10;;;8.17;;
20695;SDS011;10507;52.754;13.040;2024-01-30T01:42:24;14.80;;;8.23;;
20695;SDS011;10507;52.754;13.040;2024-01-30T01:44:50;14.63;;;7.63;;
20695;SDS011;10507;52.754;13.040;2024-01-30T01:47:18;13.60;;;6.73;;
20695;SDS011;10507;52.754;13.040;2024-01-30T01:49:45;10.10;;;6.47;;
20695;SDS011;10507;52.754;13.040;2024-01-30T01:52:12;11.80;;;7.13;;
20695;SDS011;10507;52.754;13.040;2024-01-30T01:54:39;10.70;;;6.87;;
20695;SDS011;10507;52.754;13.040;2024-01-30T01:57:07;14.60;;;7.70;;
20695;SDS011;10507;52.754;13.040;2024-01-30T01:59:33;10.10;;;6.37;;
20695;SDS011;10507;52.754;13.040;2024-01-30T02:02:00;16.17;;;9.20;;
20695;SDS011;10507;52.754;13.040;2024-01-30T02:04:31;26.50;;;12.60;;
20695;SDS011;10507;52.754;13.040;2024-01-30T02:06:57;23.03;;;10.73;;
20695;SDS011;10507;52.754;13.040;2024-01-30T02:09:24;21.53;;;10.93;;
20695;SDS011;10507;52.754;13.040;2024-01-30T02:11:51;19.90;;;10.20;;
20695;SDS011;10507;52.754;13.040;2024-01-30T02:14:18;17.53;;;10.37;;
20695;SDS011;10507;52.754;13.040;2024-01-30T02:16:44;17.83;;;9.40;;
20695;SDS011;10507;52.754;13.040;2024-01-30T02:19:11;13.60;;;8.10;;
20695;SDS011;10507;52.754;13.040;2024-01-30T02:21:39;15.07;;;8.63;;
20695;SDS011;10507;52.754;13.040;2024-01-30T02:24:06;19.93;;;10.70;;
20695;SDS011;10507;52.754;13.040;2024-01-30T02:26:32;25.43;;;11.67;;
20695;SDS011;10507;52.754;13.040;2024-01-30T02:28:59;17.67;;;9.67;;
20695;SDS011;10507;52.754;13.040;2024-01-30T02:31:26;14.90;;;7.90;;
20695;SDS011;10507;52.754;13.040;2024-01-30T02:33:52;12.23;;;7.53;;
20695;SDS011;10507;52.754;13.040;2024-01-30T02:36:19;13.70;;;7.30;;
20695;SDS011;10507;52.754;13.040;2024-01-30T02:38:47;11.37;;;7.20;;
20695;SDS011;10507;52.754;13.040;2024-01-30T02:41:14;14.47;;;8.63;;
20695;SDS011;10507;52.754;13.040;2024-01-30T02:43:40;13.87;;;7.43;;
20695;SDS011;10507;52.754;13.040;2024-01-30T02:46:07;12.43;;;6.77;;
20695;SDS011;10507;52.754;13.040;2024-01-30T02:48:33;11.63;;;7.33;;
20695;SDS011;10507;52.754;13.040;2024-01-30T02:51:00;13.70;;;7.30;;
20695;SDS011;10507;52.754;13.040;2024-01-30T02:53:27;11.83;;;7.20;;
20695;SDS011;10507;52.754;13.040;2024-01-30T02:55:55;11.53;;;7.23;;
20695;SDS011;10507;52.754;13.040;2024-01-30T02:58:21;13.17;;;7.03;;
20695;SDS011;10507;52.754;13.040;2024-01-30T03:00:48;11.73;;;6.83;;
20695;SDS011;10507;52.754;13.040;2024-01-30T03:03:15;11.17;;;7.27;;
20695;SDS011;10507;52.754;13.040;2024-01-30T03:05:41;11.57;;;7.37;;
20695;SDS011;10507;52.754;13.040;2024-01-30T03:08:08;12.73;;;6.87;;
20695;SDS011;10507;52.754;13.040;2024-01-30T03:10:35;10.60;;;7.00;;
20695;SDS011;10507;52.754;13.040;2024-01-30T03:13:03;10.57;;;7.50;;
20695;SDS011;10507;52.754;13.040;2024-01-30T03:15:30;11.97;;;6.67;;
20695;SDS011;10507;52.754;13.040;2024-01-30T03:17:56;11.63;;;6.93;;
20695;SDS011;10507;52.754;13.040;2024-01-30T03:20:23;9.87;;;7.00;;
20695;SDS011;10507;52.754;13.040;2024-01-30T03:22:50;11.07;;;6.67;;
20695;SDS011;10507;52.754;13.040;2024-01-30T03:25:16;11.30;;;7.37;;
20695;SDS011;10507;52.754;13.040;2024-01-30T03:27:43;12.47;;;6.93;;
20695;SDS011;10507;52.754;13.040;2024-01-30T03:30:11;13.30;;;7.07;;
20695;SDS011;10507;52.754;13.040;2024-01-30T03:32:38;10.70;;;6.37;;
20695;SDS011;10507;52.754;13.040;2024-01-30T03:35:05;10.77;;;6.70;;
20695;SDS011;10507;52.754;13.040;2024-01-30T03:37:32;12.03;;;7.10;;
20695;SDS011;10507;52.754;13.040;2024-01-30T03:39:58;12.77;;;7.83;;
20695;SDS011;10507;52.754;13.040;2024-01-30T03:42:25;14.23;;;7.97;;
20695;SDS011;10507;52.754;13.040;2024-01-30T03:44:52;11.10;;;7.83;;
20695;SDS011;10507;52.754;13.040;2024-01-30T03:47:21;13.30;;;7.43;;
20695;SDS011;10507;52.754;13.040;2024-01-30T03:49:48;12.33;;;7.80;;
20695;SDS011;10507;52.754;13.040;2024-01-30T03:52:14;12.03;;;7.03;;
20695;SDS011;10507;52.754;13.040;2024-01-30T03:54:41;14.87;;;7.23;;
20695;SDS011;10507;52.754;13.040;2024-01-30T03:57:08;10.70;;;6.90;;
20695;SDS011;10507;52.754;13.040;2024-01-30T03:59:34;12.53;;;6.30;;
20695;SDS011;10507;52.754;13.040;2024-01-30T04:02:00;10.70;;;6.63;;
20695;SDS011;10507;52.754;13.040;2024-01-30T04:04:28;10.57;;;6.83;;
20695;SDS011;10507;52.754;13.040;2024-01-30T04:06:55;10.67;;;6.80;;
20695;SDS011;10507;52.754;13.040;2024-01-30T04:09:21;10.80;;;6.90;;
20695;SDS011;10507;52.754;13.040;2024-01-30T04:11:48;11.30;;;6.53;;
20695;SDS011;10507;52.754;13.040;2024-01-30T04:14:15;12.03;;;6.90;;
20695;SDS011;10507;52.754;13.040;2024-01-30T04:16:41;13.80;;;7.37;;
20695;SDS011;10507;52.754;13.040;2024-01-30T04:19:08;10.27;;;6.90;;
20695;SDS011;10507;52.754;13.040;2024-01-30T04:21:36;9.53;;;6.90;;
20695;SDS011;10507;52.754;13.040;2024-01-30T04:24:03;11.47;;;6.83;;
20695;SDS011;10507;52.754;13.040;2024-01-30T04:26:30;13.27;;;8.13;;
20695;SDS011;10507;52.754;13.040;2024-01-30T04:28:56;11.53;;;7.23;;
20695;SDS011;10507;52.754;13.040;2024-01-30T04:31:23;11.50;;;7.43;;
20695;SDS011;10507;52.754;13.040;2024-01-30T04:33:50;11.93;;;7.23;;
20695;SDS011;10507;52.754;13.040;2024-01-30T04:36:16;14.10;;;7.67;;
20695;SDS011;10507;52.754;13.040;2024-01-30T04:38:44;12.93;;;8.23;;
20695;SDS011;10507;52.754;13.040;2024-01-30T04:41:11;12.33;;;7.00;;
20695;SDS011;10507;52.754;13.040;2024-01-30T04:43:37;10.20;;;7.10;;
20695;SDS011;10507;52.754;13.040;2024-01-30T04:46:04;10.03;;;6.87;;
20695;SDS011;10507;52.754;13.040;2024-01-30T04:48:31;13.87;;;7.90;;
20695;SDS011;10507;52.754;13.040;2024-01-30T04:50:58;15.63;;;8.27;;
20695;SDS011;10507;52.754;13.040;2024-01-30T04:53:29;14.10;;;8.83;;
20695;SDS011;10507;52.754;13.040;2024-01-30T04:55:57;12.50;;;8.40;;
20695;SDS011;10507;52.754;13.040;2024-01-30T04:58:24;13.87;;;7.73;;
20695;SDS011;10507;52.754;13.040;2024-01-30T05:00:50;16.97;;;8.27;;
20695;SDS011;10507;52.754;13.040;2024-01-30T05:03:17;15.23;;;7.83;;
20695;SDS011;10507;52.754;13.040;2024-01-30T05:05:44;13.00;;;7.80;;
20695;SDS011;10507;52.754;13.040;2024-01-30T05:08:11;16.03;;;7.97;;
20695;SDS011;10507;52.754;13.040;2024-01-30T05:10:37;15.47;;;9.30;;
20695;SDS011;10507;52.754;13.040;2024-01-30T05:13:05;14.13;;;8.03;;
20695;SDS011;10507;52.754;13.040;2024-01-30T05:15:32;15.20;;;8.03;;
20695;SDS011;10507;52.754;13.040;2024-01-30T05:17:59;14.23;;;8.03;;
20695;SDS011;10507;52.754;13.040;2024-01-30T05:20:25;12.17;;;7.43;;
20695;SDS011;10507;52.754;13.040;2024-01-30T05:22:53;12.60;;;7.50;;
20695;SDS011;10507;52.754;13.040;2024-01-30T05:25:19;12.40;;;7.57;;
20695;SDS011;10507;52.754;13.040;2024-01-30T05:27:46;17.33;;;8.00;;
20695;SDS011;10507;52.754;13.040;2024-01-30T05:30:14;14.60;;;7.37;;
20695;SDS011;10507;52.754;13.040;2024-01-30T05:32:41;11.77;;;6.87;;
20695;SDS011;10507;52.754;13.040;2024-01-30T05:35:07;11.83;;;7.27;;
20695;SDS011;10507;52.754;13.040;2024-01-30T05:37:34;12.37;;;7.30;;
20695;SDS011;10507;52.754;13.040;2024-01-30T05:40:00;14.00;;;7.40;;
20695;SDS011;10507;52.754;13.040;2024-01-30T05:42:28;13.17;;;7.27;;
20695;SDS011;10507;52.754;13.040;2024-01-30T05:44:54;11.57;;;7.03;;
20695;SDS011;10507;52.754;13.040;2024-01-30T05:47:22;10.77;;;7.13;;
20695;SDS011;10507;52.754;13.040;2024-01-30T05:49:49;16.77;;;8.50;;
20695;SDS011;10507;52.754;13.040;2024-01-30T05:52:16;13.47;;;7.77;;
20695;SDS011;10507;52.754;13.040;2024-01-30T05:54:43;13.80;;;8.10;;
20695;SDS011;10507;52.754;13.040;2024-01-30T05:57:10;14.10;;;7.40;;
20695;SDS011;10507;52.754;13.040;2024-01-30T05:59:37;12.63;;;7.67;;
20695;SDS011;10507;52.754;13.040;2024-01-30T06:02:03;11.13;;;6.90;;
20695;SDS011;10507;52.754;13.040;2024-01-30T06:04:31;12.93;;;7.10;;
20695;SDS011;10507;52.754;13.040;2024-01-30T06:06:58;10.50;;;6.67;;
20695;SDS011;10507;52.754;13.040;2024-01-30T06:09:27;13.10;;;7.90;;
20695;SDS011;10507;52.754;13.040;2024-01-30T06:11:53;12.97;;;7.23;;
20695;SDS011;10507;52.754;13.040;2024-01-30T06:14:20;11.37;;;7.33;;
20695;SDS011;10507;52.754;13.040;2024-01-30T06:16:47;12.70;;;7.97;;
20695;SDS011;10507;52.754;13.040;2024-01-30T06:19:13;16.50;;;8.27;;
20695;SDS011;10507;52.754;13.040;2024-01-30T06:21:41;12.53;;;7.63;;
20695;SDS011;10507;52.754;13.040;2024-01-30T06:24:08;11.33;;;8.03;;
20695;SDS011;10507;52.754;13.040;2024-01-30T06:26:35;12.40;;;8.23;;
20695;SDS011;10507;52.754;13.040;2024-01-30T06:29:02;14.13;;;7.47;;
20695;SDS011;10507;52.754;13.040;2024-01-30T06:31:28;15.83;;;7.30;;
20695;SDS011;10507;52.754;13.040;2024-01-30T06:33:56;11.77;;;7.80;;
20695;SDS011;10507;52.754;13.040;2024-01-30T06:36:22;12.73;;;7.80;;
20695;SDS011;10507;52.754;13.040;2024-01-30T06:38:50;13.73;;;7.67;;
20695;SDS011;10507;52.754;13.040;2024-01-30T06:41:17;16.43;;;7.53;;
20695;SDS011;10507;52.754;13.040;2024-01-30T06:43:44;12.83;;;7.60;;
20695;SDS011;10507;52.754;13.040;2024-01-30T06:46:11;15.33;;;7.87;;
20695;SDS011;10507;52.754;13.040;2024-01-30T06:48:38;13.37;;;7.73;;
20695;SDS011;10507;52.754;13.040;2024-01-30T06:51:05;12.07;;;7.70;;
20695;SDS011;10507;52.754;13.040;2024-01-30T06:53:32;13.17;;;7.60;;
20695;SDS011;10507;52.754;13.040;2024-01-30T06:56:00;17.10;;;8.43;;
20695;SDS011;10507;52.754;13.040;2024-01-30T06:58:26;12.67;;;7.50;;
20695;SDS011;10507;52.754;13.040;2024-01-30T07:00:53;14.27;;;8.33;;
20695;SDS011;10507;52.754;13.040;2024-01-30T07:03:20;13.77;;;8.13;;
20695;SDS011;10507;52.754;13.040;2024-01-30T07:05:47;13.90;;;8.27;;
20695;SDS011;10507;52.754;13.040;2024-01-30T07:08:14;13.87;;;7.37;;
20695;SDS011;10507;52.754;13.040;2024-01-30T07:10:42;15.07;;;8.27;;
20695;SDS011;10507;52.754;13.040;2024-01-30T07:13:10;12.37;;;7.67;;
20695;SDS011;10507;52.754;13.040;2024-01-30T07:15:37;15.70;;;8.13;;
20695;SDS011;10507;52.754;13.040;2024-01-30T07:18:04;11.77;;;7.60;;
20695;SDS011;10507;52.754;13.040;2024-01-30T07:20:31;13.77;;;7.80;;
20695;SDS011;10507;52.754;13.040;2024-01-30T07:22:58;13.10;;;7.13;;
20695;SDS011;10507;52.754;13.040;2024-01-30T07:25:25;11.67;;;7.43;;
20695;SDS011;10507;52.754;13.040;2024-01-30T07:27:51;13.00;;;7.90;;
20695;SDS011;10507;52.754;13.040;2024-01-30T07:30:20;12.87;;;7.20;;
20695;SDS011;10507;52.754;13.040;2024-01-30T07:32:46;12.00;;;7.13;;
20695;SDS011;10507;52.754;13.040;2024-01-30T07:35:13;14.13;;;8.47;;
20695;SDS011;10507;52.754;13.040;2024-01-30T07:37:40;15.30;;;8.27;;
20695;SDS011;10507;52.754;13.040;2024-01-30T07:40:06;11.20;;;7.60;;
20695;SDS011;10507;52.754;13.040;2024-01-30T07:42:34;14.23;;;7.90;;
20695;SDS011;10507;52.754;13.040;2024-01-30T07:45:00;16.50;;;8.10;;
20695;SDS011;10507;52.754;13.040;2024-01-30T07:47:28;12.43;;;8.10;;
20695;SDS011;10507;52.754;13.040;2024-01-30T07:49:55;13.63;;;8.60;;
20695;SDS011;10507;52.754;13.040;2024-01-30T07:52:22;16.17;;;10.03;;
20695;SDS011;10507;52.754;13.040;2024-01-30T07:54:48;15.03;;;8.77;;
20695;SDS011;10507;52.754;13.040;2024-01-30T07:57:15;14.00;;;8.93;;
20695;SDS011;10507;52.754;13.040;2024-01-30T07:59:42;17.40;;;9.67;;
20695;SDS011;10507;52.754;13.040;2024-01-30T08:02:09;16.73;;;9.47;;
20695;SDS011;10507;52.754;13.040;2024-01-30T08:04:37;14.87;;;7.83;;
20695;SDS011;10507;52.754;13.040;2024-01-30T08:07:04;13.67;;;8.10;;
20695;SDS011;10507;52.754;13.040;2024-01-30T08:09:30;14.93;;;8.57;;
20695;SDS011;10507;52.754;13.040;2024-01-30T08:11:57;17.47;;;9.23;;
20695;SDS011;10507;52.754;13.040;2024-01-30T08:14:24;14.23;;;7.70;;
20695;SDS011;10507;52.754;13.040;2024-01-30T08:16:51;11.27;;;6.97;;
20695;SDS011;10507;52.754;13.040;2024-01-30T08:19:17;12.10;;;8.23;;
20695;SDS011;10507;52.754;13.040;2024-01-30T08:21:45;13.83;;;7.97;;
20695;SDS011;10507;52.754;13.040;2024-01-30T08:24:12;12.13;;;6.97;;
20695;SDS011;10507;52.754;13.040;2024-01-30T08:26:38;12.30;;;8.13;;
20695;SDS011;10507;52.754;13.040;2024-01-30T08:29:05;17.60;;;8.37;;
20695;SDS011;10507;52.754;13.040;2024-01-30T08:31:32;16.60;;;8.33;;
20695;SDS011;10507;52.754;13.040;2024-01-30T08:33:58;16.77;;;9.20;;
20695;SDS011;10507;52.754;13.040;2024-01-30T08:36:25;21.37;;;11.30;;
20695;SDS011;10507;52.754;13.040;2024-01-30T08:38:53;17.23;;;10.07;;
20695;SDS011;10507;52.754;13.040;2024-01-30T08:41:20;15.30;;;9.70;;
20695;SDS011;10507;52.754;13.040;2024-01-30T08:43:46;26.50;;;13.67;;
20695;SDS011;10507;52.754;13.040;2024-01-30T08:46:13;23.10;;;13.30;;
20695;SDS011;10507;52.754;13.040;2024-01-30T08:48:43;20.77;;;11.57;;
20695;SDS011;10507;52.754;13.040;2024-01-30T08:51:10;15.37;;;9.30;;
20695;SDS011;10507;52.754;13.040;2024-01-30T08:53:37;20.93;;;11.93;;
20695;SDS011;10507;52.754;13.040;2024-01-30T08:56:06;24.00;;;14.10;;
20695;SDS011;10507;52.754;13.040;2024-01-30T08:58:33;27.70;;;14.40;;
20695;SDS011;10507;52.754;13.040;2024-01-30T09:00:59;31.50;;;16.80;;
20695;SDS011;10507;52.754;13.040;2024-01-30T09:03:26;34.93;;;17.90;;
20695;SDS011;10507;52.754;13.040;2024-01-30T09:05:53;30.27;;;15.87;;
20695;SDS011;10507;52.754;13.040;2024-01-30T09:08:19;31.77;;;14.93;;
20695;SDS011;10507;52.754;13.040;2024-01-30T09:10:46;26.83;;;13.60;;
20695;SDS011;10507;52.754;13.040;2024-01-30T09:13:14;36.03;;;17.43;;
20695;SDS011;10507;52.754;13.040;2024-01-30T09:15:41;25.00;;;14.43;;
20695;SDS011;10507;52.754;13.040;2024-01-30T09:18:09;27.57;;;13.37;;
20695;SDS011;10507;52.754;13.040;2024-01-30T09:20:36;26.80;;;12.90;;
20695;SDS011;10507;52.754;13.040;2024-01-30T09:23:02;22.33;;;11.40;;
20695;SDS011;10507;52.754;13.040;2024-01-30T09:25:29;22.97;;;12.27;;
20695;SDS011;10507;52.754;13.040;2024-01-30T09:27:56;18.77;;;9.60;;
20695;SDS011;10507;52.754;13.040;2024-01-30T09:30:24;14.40;;;8.73;;
20695;SDS011;10507;52.754;13.040;2024-01-30T09:32:51;16.73;;;9.73;;
20695;SDS011;10507;52.754;13.040;2024-01-30T09:35:18;14.70;;;7.90;;
20695;SDS011;10507;52.754;13.040;2024-01-30T09:37:45;13.63;;;8.17;;
20695;SDS011;10507;52.754;13.040;2024-01-30T09:40:11;17.00;;;9.70;;
20695;SDS011;10507;52.754;13.040;2024-01-30T09:42:38;17.53;;;9.90;;
20695;SDS011;10507;52.754;13.040;2024-01-30T09:45:06;19.10;;;9.73;;
20695;SDS011;10507;52.754;13.040;2024-01-30T09:47:36;17.93;;;9.37;;
20695;SDS011;10507;52.754;13.040;2024-01-30T09:50:08;15.20;;;7.90;;
20695;SDS011;10507;52.754;13.040;2024-01-30T09:52:35;13.93;;;9.30;;
20695;SDS011;10507;52.754;13.040;2024-01-30T09:55:02;13.83;;;7.97;;
20695;SDS011;10507;52.754;13.040;2024-01-30T09:57:29;18.10;;;9.20;;
20695;SDS011;10507;52.754;13.040;2024-01-30T09:59:56;17.90;;;10.80;;
20695;SDS011;10507;52.754;13.040;2024-01-30T10:02:23;17.37;;;9.73;;
20695;SDS011;10507;52.754;13.040;2024-01-30T10:04:51;15.20;;;9.60;;
20695;SDS011;10507;52.754;13.040;2024-01-30T10:07:18;12.80;;;6.80;;
20695;SDS011;10507;52.754;13.040;2024-01-30T10:09:46;11.43;;;7.00;;
20695;SDS011;10507;52.754;13.040;2024-01-30T10:12:14;9.23;;;5.43;;
20695;SDS011;10507;52.754;13.040;2024-01-30T10:14:41;10.40;;;5.93;;
20695;SDS011;10507;52.754;13.040;2024-01-30T10:17:09;8.47;;;5.60;;
20695;SDS011;10507;52.754;13.040;2024-01-30T10:19:36;11.47;;;5.97;;
20695;SDS011;10507;52.754;13.040;2024-01-30T10:22:05;9.70;;;6.00;;
20695;SDS011;10507;52.754;13.040;2024-01-30T10:24:33;10.67;;;5.60;;
20695;SDS011;10507;52.754;13.040;2024-01-30T10:27:00;9.60;;;5.30;;
20695;SDS011;10507;52.754;13.040;2024-01-30T10:29:27;10.63;;;5.87;;
20695;SDS011;10507;52.754;13.040;2024-01-30T10:31:57;9.77;;;5.80;;
20695;SDS011;10507;52.754;13.040;2024-01-30T10:34:24;11.40;;;5.73;;
20695;SDS011;10507;52.754;13.040;2024-01-30T10:36:51;13.20;;;6.47;;
20695;SDS011;10507;52.754;13.040;2024-01-30T10:39:26;8.87;;;5.60;;
20695;SDS011;10507;52.754;13.040;2024-01-30T10:41:55;9.20;;;5.43;;
20695;SDS011;10507;52.754;13.040;2024-01-30T10:44:25;9.77;;;6.17;;
20695;SDS011;10507;52.754;13.040;2024-01-30T10:46:58;10.53;;;5.90;;
20695;SDS011;10507;52.754;13.040;2024-01-30T10:49:29;9.80;;;5.60;;
20695;SDS011;10507;52.754;13.040;2024-01-30T10:51:56;7.87;;;5.30;;
20695;SDS011;10507;52.754;13.040;2024-01-30T10:54:24;13.00;;;5.97;;
20695;SDS011;10507;52.754;13.040;2024-01-30T10:56:54;8.77;;;5.43;;
20695;SDS011;10507;52.754;13.040;2024-01-30T10:59:22;14.57;;;5.57;;
20695;SDS011;10507;52.754;13.040;2024-01-30T11:01:50;7.83;;;5.47;;
20695;SDS011;10507;52.754;13.040;2024-01-30T11:04:17;9.37;;;5.50;;
20695;SDS011;10507;52.754;13.040;2024-01-30T11:06:44;11.63;;;5.70;;
20695;SDS011;10507;52.754;13.040;2024-01-30T11:09:11;10.30;;;5.83;;
20695;SDS011;10507;52.754;13.040;2024-01-30T11:11:50;12.30;;;6.70;;
20695;SDS011;10507;52.754;13.040;2024-01-30T11:14:23;10.00;;;6.57;;
20695;SDS011;10507;52.754;13.040;2024-01-30T11:16:51;10.30;;;5.67;;
20695;SDS011;10507;52.754;13.040;2024-01-30T11:19:22;10.07;;;6.00;;
20695;SDS011;10507;52.754;13.040;2024-01-30T11:21:50;8.73;;;5.70;;
20695;SDS011;10507;52.754;13.040;2024-01-30T11:24:19;10.80;;;5.97;;
20695;SDS011;10507;52.754;13.040;2024-01-30T11:26:47;9.13;;;5.30;;
20695;SDS011;10507;52.754;13.040;2024-01-30T11:29:15;8.40;;;5.47;;
20695;SDS011;10507;52.754;13.040;2024-01-30T11:31:52;7.63;;;5.30;;
20695;SDS011;10507;52.754;13.040;2024-01-30T11:34:19;9.23;;;5.60;;
20695;SDS011;10507;52.754;13.040;2024-01-30T11:36:47;10.40;;;4.73;;
20695;SDS011;10507;52.754;13.040;2024-01-30T11:39:24;12.20;;;5.20;;
20695;SDS011;10507;52.754;13.040;2024-01-30T11:41:51;8.80;;;6.10;;
20695;SDS011;10507;52.754;13.040;2024-01-30T11:44:18;9.13;;;4.80;;
20695;SDS011;10507;52.754;13.040;2024-01-30T11:46:46;7.97;;;5.00;;
20695;SDS011;10507;52.754;13.040;2024-01-30T11:49:15;9.00;;;5.07;;
20695;SDS011;10507;52.754;13.040;2024-01-30T11:51:42;10.13;;;5.47;;
20695;SDS011;10507;52.754;13.040;2024-01-30T11:54:13;8.73;;;4.63;;
20695;SDS011;10507;52.754;13.040;2024-01-30T11:56:40;9.90;;;4.90;;
20695;SDS011;10507;52.754;13.040;2024-01-30T11:59:07;8.93;;;5.17;;
20695;SDS011;10507;52.754;13.040;2024-01-30T12:01:33;9.40;;;5.13;;
20695;SDS011;10507;52.754;13.040;2024-01-30T12:04:00;8.85;;;4.90;;
20695;SDS011;10507;52.754;13.040;2024-01-30T12:06:29;9.43;;;5.63;;
20695;SDS011;10507;52.754;13.040;2024-01-30T12:08:59;9.63;;;5.40;;
20695;SDS011;10507;52.754;13.040;2024-01-30T12:11:29;7.97;;;5.18;;
20695;SDS011;10507;52.754;13.040;2024-01-30T12:13:56;10.20;;;5.20;;
20695;SDS011;10507;52.754;13.040;2024-01-30T12:16:23;7.13;;;4.80;;
20695;SDS011;10507;52.754;13.040;2024-01-30T12:18:58;8.63;;;4.60;;
20695;SDS011;10507;52.754;13.040;2024-01-30T12:21:26;9.85;;;5.32;;
20695;SDS011;10507;52.754;13.040;2024-01-30T12:23:56;7.60;;;5.00;;
20695;SDS011;10507;52.754;13.040;2024-01-30T12:26:23;6.67;;;4.73;;
20695;SDS011;10507;52.754;13.040;2024-01-30T12:28:50;6.15;;;4.20;;
20695;SDS011;10507;52.754;13.040;2024-01-30T12:31:25;8.50;;;5.10;;
20695;SDS011;10507;52.754;13.040;2024-01-30T12:33:52;7.07;;;4.45;;
20695;SDS011;10507;52.754;13.040;2024-01-30T12:36:18;8.35;;;4.75;;
20695;SDS011;10507;52.754;13.040;2024-01-30T12:38:45;8.02;;;4.68;;
20695;SDS011;10507;52.754;13.040;2024-01-30T12:41:13;8.85;;;4.63;;
20695;SDS011;10507;52.754;13.040;2024-01-30T12:43:41;11.90;;;4.70;;
20695;SDS011;10507;52.754;13.040;2024-01-30T12:46:08;8.23;;;4.47;;
20695;SDS011;10507;52.754;13.040;2024-01-30T12:48:35;7.50;;;4.50;;
20695;SDS011;10507;52.754;13.040;2024-01-30T12:51:01;9.40;;;5.60;;
20695;SDS011;10507;52.754;13.040;2024-01-30T12:53:28;7.77;;;4.23;;
20695;SDS011;10507;52.754;13.040;2024-01-30T12:55:55;7.35;;;4.13;;
20695;SDS011;10507;52.754;13.040;2024-01-30T12:58:23;8.85;;;4.65;;
20695;SDS011;10507;52.754;13.040;2024-01-30T13:00:50;9.30;;;4.70;;
20695;SDS011;10507;52.754;13.040;2024-01-30T13:03:18;9.95;;;4.60;;
20695;SDS011;10507;52.754;13.040;2024-01-30T13:05:45;8.25;;;4.95;;
20695;SDS011;10507;52.754;13.040;2024-01-30T13:08:11;11.67;;;4.77;;
20695;SDS011;10507;52.754;13.040;2024-01-30T13:10:38;7.57;;;5.20;;
20695;SDS011;10507;52.754;13.040;2024-01-30T13:13:05;8.30;;;4.43;;
20695;SDS011;10507;52.754;13.040;2024-01-30T13:15:33;7.97;;;4.73;;
20695;SDS011;10507;52.754;13.040;2024-01-30T13:17:59;10.93;;;5.07;;
20695;SDS011;10507;52.754;13.040;2024-01-30T13:20:26;8.43;;;5.03;;
20695;SDS011;10507;52.754;13.040;2024-01-30T13:22:53;8.70;;;4.27;;
20695;SDS011;10507;52.754;13.040;2024-01-30T13:25:19;9.27;;;4.87;;
20695;SDS011;10507;52.754;13.040;2024-01-30T13:27:46;8.10;;;4.97;;
20695;SDS011;10507;52.754;13.040;2024-01-30T13:30:12;12.82;;;5.38;;
20695;SDS011;10507;52.754;13.040;2024-01-30T13:32:40;7.93;;;4.47;;
20695;SDS011;10507;52.754;13.040;2024-01-30T13:35:09;8.70;;;4.90;;
20695;SDS011;10507;52.754;13.040;2024-01-30T13:37:36;10.65;;;4.68;;
20695;SDS011;10507;52.754;13.040;2024-01-30T13:40:02;9.10;;;5.35;;
20695;SDS011;10507;52.754;13.040;2024-01-30T13:42:32;7.63;;;4.45;;
20695;SDS011;10507;52.754;13.040;2024-01-30T13:44:58;7.37;;;4.70;;
20695;SDS011;10507;52.754;13.040;2024-01-30T13:47:25;13.98;;;6.03;;
20695;SDS011;10507;52.754;13.040;2024-01-30T13:49:53;8.52;;;5.40;;
20695;SDS011;10507;52.754;13.040;2024-01-30T13:52:19;14.63;;;7.20;;
20695;SDS011;10507;52.754;13.040;2024-01-30T13:54:46;10.20;;;5.50;;
20695;SDS011;10507;52.754;13.040;2024-01-30T13:57:13;9.27;;;5.10;;
20695;SDS011;10507;52.754;13.040;2024-01-30T13:59:40;7.80;;;4.93;;
20695;SDS011;10507;52.754;13.040;2024-01-30T14:02:07;8.55;;;4.85;;
20695;SDS011;10507;52.754;13.040;2024-01-30T14:04:35;7.83;;;4.47;;
20695;SDS011;10507;52.754;13.040;2024-01-30T14:07:04;9.37;;;5.03;;
20695;SDS011;10507;52.754;13.040;2024-01-30T14:09:32;10.17;;;4.87;;
20695;SDS011;10507;52.754;13.040;2024-01-30T14:11:59;13.53;;;5.03;;
20695;SDS011;10507;52.754;13.040;2024-01-30T14:14:26;8.90;;;4.60;;
20695;SDS011;10507;52.754;13.040;2024-01-30T14:16:52;8.33;;;5.40;;
20695;SDS011;10507;52.754;13.040;2024-01-30T14:19:19;10.57;;;5.70;;
20695;SDS011;10507;52.754;13.040;2024-01-30T14:21:46;9.60;;;4.93;;
20695;SDS011;10507;52.754;13.040;2024-01-30T14:24:14;9.17;;;5.07;;